Cienfuegus, Cuba
Current Conditions -  °F | °C
As of 10:51 AM on Tuesday 21 Oct 2014 (Local Time) from MUSC Reporting Station
Broken Clouds Broken Clouds  
Wind Chill: 82°   Ceiling: 15000
Heat Index: 88°   Visibility: 6mi
Dew Point: 73°   Wind: 7mph
Humidity: 74%   Direction: 110°ESE
Pressure: 29.97"   Gusts: NA
Location:  22.15°N, 80.4°W
Report Text: MUSC 211451Z 11006KT 080V160 9000 FEW025 BKN150 28/23 Q1015
Loading
Personal Weather Stations






























Interactive Weather Map
Tropical Storm Tracking
New forecast layout! Learn more

10-Day Weather Forecast

Advertisements
Track Severe Weather on mobile